Time;durP1;ratioP1;P1;durP2;ratioP2;P2;SDS_P1;SDS_P2;PMS_P1;PMS_P2;Temp;Humidity;BMP_temperature;BMP_pressure;BME280_temperature;BME280_humidity;BME280_pressure;Samples;Min_cycle;Max_cycle;Signal;HPM_P1;HPM_P2
2021/03/30 00:00:07;;;;;;;11.03;6.10;;;13.00;52.60;;;;;;5072813;28;20981;-72
2021/03/30 00:02:33;;;;;;;12.03;6.40;;;13.00;52.90;;;;;;5075788;28;20464;-72
2021/03/30 00:04:59;;;;;;;11.97;7.20;;;13.00;52.30;;;;;;5076342;28;20994;-72
2021/03/30 00:07:25;;;;;;;9.03;5.63;;;13.00;52.20;;;;;;5076292;28;20954;-71
2021/03/30 00:09:52;;;;;;;13.80;6.20;;;13.10;52.20;;;;;;5077568;28;20490;-72
2021/03/30 00:12:19;;;;;;;14.97;6.90;;;13.10;52.10;;;;;;5077198;28;20448;-71
2021/03/30 00:14:45;;;;;;;12.13;5.30;;;13.10;52.30;;;;;;5076578;28;20468;-71
2021/03/30 00:17:11;;;;;;;9.23;5.27;;;13.10;52.40;;;;;;5076551;28;20440;-72
2021/03/30 00:19:37;;;;;;;13.97;6.00;;;13.10;52.00;;;;;;5076395;28;20854;-72
2021/03/30 00:22:04;;;;;;;11.83;6.77;;;13.10;51.70;;;;;;5076307;28;20483;-72
2021/03/30 00:24:30;;;;;;;7.27;5.53;;;13.00;51.70;;;;;;5076502;28;20473;-72
2021/03/30 00:26:57;;;;;;;11.27;5.73;;;13.00;51.80;;;;;;5076362;28;20527;-72
2021/03/30 00:29:24;;;;;;;11.83;6.07;;;13.00;51.90;;;;;;5075941;28;20559;-72
2021/03/30 00:31:50;;;;;;;9.30;5.70;;;12.90;52.10;;;;;;5076171;28;20440;-72
2021/03/30 00:34:16;;;;;;;6.17;5.30;;;12.80;52.20;;;;;;5076060;28;20464;-72
2021/03/30 00:36:43;;;;;;;7.53;5.53;;;12.80;52.30;;;;;;5075791;28;20964;-72
2021/03/30 00:39:09;;;;;;;7.40;5.30;;;12.70;52.80;;;;;;5075753;28;20444;-72
2021/03/30 00:41:42;;;;;;;8.00;5.63;;;12.70;52.40;;;;;;5075948;28;20480;-72
2021/03/30 00:44:11;;;;;;;8.10;5.60;;;12.60;52.50;;;;;;5075929;28;20522;-72
2021/03/30 00:46:40;;;;;;;7.10;5.13;;;12.60;52.80;;;;;;5075947;28;20449;-72
2021/03/30 00:49:06;;;;;;;12.00;6.40;;;12.50;52.80;;;;;;5075970;28;20448;-72
2021/03/30 00:51:32;;;;;;;7.27;4.20;;;12.50;52.90;;;;;;5075867;28;20554;-72
2021/03/30 00:53:59;;;;;;;7.67;5.30;;;12.30;52.60;;;;;;5075703;28;20472;-72
2021/03/30 00:56:26;;;;;;;8.83;4.33;;;12.30;52.40;;;;;;5075788;28;20447;-71
2021/03/30 00:58:55;;;;;;;6.47;4.63;;;12.20;52.30;;;;;;5075723;28;20448;-71
2021/03/30 01:01:21;;;;;;;10.80;4.40;;;12.10;52.30;;;;;;5075580;28;20441;-71
2021/03/30 01:03:48;;;;;;;10.57;4.63;;;12.10;52.50;;;;;;5075571;28;20468;-71
2021/03/30 01:06:14;;;;;;;8.53;4.93;;;12.00;52.50;;;;;;5075569;28;20449;-71
2021/03/30 01:08:59;;;;;;;6.50;4.90;;;12.00;52.60;;;;;;5075091;28;20954;-71
2021/03/30 01:11:36;;;;;;;15.70;5.37;;;11.90;52.70;;;;;;5075521;28;20433;-71
2021/03/30 01:14:19;;;;;;;7.37;5.00;;;11.80;52.90;;;;;;5075211;28;20472;-72
2021/03/30 01:16:51;;;;;;;5.27;3.70;;;11.80;53.00;;;;;;5075115;28;20428;-71
2021/03/30 01:19:40;;;;;;;5.23;4.30;;;11.70;53.00;;;;;;5075379;28;20429;-71
2021/03/30 01:22:52;;;;;;;6.77;4.80;;;11.60;52.90;;;;;;5075251;28;20463;-71
2021/03/30 01:25:20;;;;;;;8.87;4.40;;;11.60;53.40;;;;;;5074837;28;20970;-71
2021/03/30 01:27:58;;;;;;;6.70;4.97;;;11.50;53.40;;;;;;5074876;28;20958;-71
2021/03/30 01:30:28;;;;;;;6.40;4.97;;;11.40;53.60;;;;;;5074854;28;20910;-72
2021/03/30 01:32:57;;;;;;;7.57;4.50;;;11.30;53.70;;;;;;5075023;28;20801;-71
2021/03/30 01:35:26;;;;;;;4.70;4.30;;;11.20;53.80;;;;;;5075024;28;20425;-71
2021/03/30 01:37:53;;;;;;;4.53;3.90;;;11.20;54.10;;;;;;5074615;28;20947;-71
2021/03/30 01:40:22;;;;;;;7.40;5.47;;;11.10;54.20;;;;;;5074866;28;20445;-71
2021/03/30 01:42:51;;;;;;;6.43;4.73;;;11.10;54.30;;;;;;5074732;28;20477;-71
2021/03/30 01:45:18;;;;;;;6.57;4.40;;;11.00;54.40;;;;;;5074669;28;20464;-71
2021/03/30 01:47:47;;;;;;;5.63;4.47;;;11.00;54.60;;;;;;5074730;28;20448;-71
2021/03/30 01:50:14;;;;;;;20.10;4.90;;;11.00;54.60;;;;;;5074664;28;20440;-72
2021/03/30 01:52:42;;;;;;;10.30;4.57;;;11.00;54.80;;;;;;5074616;28;20433;-72
2021/03/30 01:55:10;;;;;;;5.10;4.23;;;11.00;54.80;;;;;;5074518;28;20471;-72
2021/03/30 01:57:38;;;;;;;6.00;4.53;;;10.90;54.80;;;;;;5074558;28;20441;-72
2021/03/30 02:00:07;;;;;;;11.53;4.87;;;10.90;55.60;;;;;;5074490;28;20455;-71
2021/03/30 02:02:33;;;;;;;8.07;4.97;;;10.90;55.30;;;;;;5074335;28;20472;-72
2021/03/30 02:05:02;;;;;;;8.73;4.50;;;10.90;55.60;;;;;;5074030;28;20997;-72
2021/03/30 02:07:29;;;;;;;8.80;5.10;;;10.90;55.80;;;;;;5074083;28;20456;-72
2021/03/30 02:09:59;;;;;;;8.17;5.03;;;10.90;56.10;;;;;;5074317;28;20445;-71
2021/03/30 02:12:31;;;;;;;6.90;4.90;;;10.90;56.20;;;;;;5074298;28;20436;-71
2021/03/30 02:14:57;;;;;;;6.00;4.60;;;10.90;56.30;;;;;;5074184;28;20557;-71
2021/03/30 02:17:30;;;;;;;9.30;4.67;;;10.90;56.50;;;;;;5074206;28;20444;-72
2021/03/30 02:20:05;;;;;;;9.40;4.97;;;10.90;56.50;;;;;;5074214;28;20788;-71
2021/03/30 02:22:35;;;;;;;8.70;4.70;;;10.90;56.70;;;;;;5074252;28;20468;-72
2021/03/30 02:25:03;;;;;;;7.20;4.90;;;10.90;56.80;;;;;;5073290;28;20990;-71
2021/03/30 02:27:32;;;;;;;6.30;4.50;;;10.90;56.90;;;;;;5073977;28;20440;-72
2021/03/30 02:30:01;;;;;;;6.83;4.50;;;10.80;56.80;;;;;;5073898;28;20535;-71
2021/03/30 02:32:28;;;;;;;5.43;3.90;;;10.90;57.00;;;;;;5073924;28;20441;-72
2021/03/30 02:34:56;;;;;;;5.90;4.87;;;10.80;57.00;;;;;;5073779;28;20464;-71
2021/03/30 02:37:24;;;;;;;5.90;4.77;;;10.80;57.10;;;;;;5074267;28;20449;-71
2021/03/30 02:39:52;;;;;;;6.30;4.63;;;10.80;57.10;;;;;;5074150;28;20436;-71
2021/03/30 02:42:20;;;;;;;9.73;4.80;;;10.80;57.00;;;;;;5074521;28;20521;-72
2021/03/30 02:44:49;;;;;;;8.17;5.00;;;10.80;57.00;;;;;;5074734;28;20481;-71
2021/03/30 02:47:19;;;;;;;5.50;4.40;;;10.70;57.00;;;;;;5074371;28;20441;-71
2021/03/30 02:49:46;;;;;;;7.10;4.43;;;10.70;56.90;;;;;;5074057;28;20449;-71
2021/03/30 02:52:14;;;;;;;9.07;4.53;;;10.70;56.90;;;;;;5074042;28;20441;-71
2021/03/30 02:54:42;;;;;;;6.13;4.30;;;10.70;57.00;;;;;;5073931;28;20991;-71
2021/03/30 02:57:09;;;;;;;15.00;4.73;;;10.60;57.00;;;;;;5073784;28;20448;-71
2021/03/30 02:59:36;;;;;;;6.90;5.07;;;10.60;57.10;;;;;;5074398;28;20444;-71
2021/03/30 03:02:04;;;;;;;5.37;3.73;;;10.60;57.00;;;;;;5073937;28;20506;-71
2021/03/30 03:04:30;;;;;;;8.77;4.33;;;10.60;56.70;;;;;;5073805;28;20473;-71
2021/03/30 03:06:57;;;;;;;4.30;3.60;;;10.50;56.40;;;;;;5073447;28;20459;-71
2021/03/30 03:09:25;;;;;;;5.50;3.90;;;10.50;56.30;;;;;;5073517;28;20440;-71
2021/03/30 03:11:52;;;;;;;4.40;3.53;;;10.40;56.30;;;;;;5073094;28;20437;-71
2021/03/30 03:14:20;;;;;;;7.90;5.00;;;10.30;56.20;;;;;;5073363;28;20461;-71
2021/03/30 03:16:47;;;;;;;5.13;3.87;;;10.30;56.10;;;;;;5073370;28;20448;-71
2021/03/30 03:19:15;;;;;;;7.43;3.70;;;10.20;56.00;;;;;;5073584;28;20453;-71
2021/03/30 03:21:43;;;;;;;5.10;3.80;;;10.20;56.10;;;;;;5073353;28;20444;-72
2021/03/30 03:24:11;;;;;;;5.33;4.07;;;10.20;56.70;;;;;;5073331;28;20514;-71
2021/03/30 03:26:38;;;;;;;4.90;3.50;;;10.10;56.60;;;;;;5073440;28;20437;-71
2021/03/30 03:29:11;;;;;;;6.63;4.83;;;10.10;56.50;;;;;;5073294;28;20498;-71
2021/03/30 03:31:38;;;;;;;5.27;4.13;;;10.00;56.50;;;;;;5072989;28;20436;-71
2021/03/30 03:34:05;;;;;;;9.53;5.50;;;10.00;56.90;;;;;;5073105;28;20464;-71
2021/03/30 03:36:36;;;;;;;8.37;4.63;;;9.90;57.30;;;;;;5075875;28;20810;-71
2021/03/30 03:39:04;;;;;;;7.90;4.03;;;9.90;57.60;;;;;;5077747;28;20440;-71
2021/03/30 03:41:30;;;;;;;10.60;4.23;;;9.80;57.70;;;;;;5077161;28;20444;-71
2021/03/30 03:43:56;;;;;;;8.67;4.93;;;9.80;57.80;;;;;;5076704;28;20846;-71
2021/03/30 03:46:23;;;;;;;8.97;4.50;;;9.70;57.70;;;;;;5077061;28;20448;-71
2021/03/30 03:48:50;;;;;;;8.13;5.27;;;9.70;57.70;;;;;;5076705;28;20953;-71
2021/03/30 03:51:18;;;;;;;15.43;6.03;;;9.70;58.00;;;;;;5076983;28;20440;-71
2021/03/30 03:53:45;;;;;;;12.80;5.20;;;9.70;58.10;;;;;;5076713;28;21048;-71
2021/03/30 03:56:14;;;;;;;4.80;4.40;;;9.70;58.20;;;;;;5076581;28;20947;-72
2021/03/30 03:58:47;;;;;;;8.20;4.33;;;9.60;58.20;;;;;;5076802;28;20498;-71
2021/03/30 04:01:19;;;;;;;6.17;4.63;;;9.60;58.40;;;;;;5077410;28;20428;-71
2021/03/30 04:03:50;;;;;;;10.20;4.40;;;9.50;58.40;;;;;;5076652;28;20522;-71
2021/03/30 04:06:18;;;;;;;6.60;4.93;;;9.50;58.30;;;;;;5076707;28;20436;-71
2021/03/30 04:08:49;;;;;;;5.97;5.37;;;9.40;58.20;;;;;;5076401;28;20452;-72
2021/03/30 04:11:16;;;;;;;6.50;5.47;;;9.40;58.10;;;;;;5077605;28;20956;-71
2021/03/30 04:13:43;;;;;;;7.67;4.93;;;9.40;58.30;;;;;;5076473;28;20460;-71
2021/03/30 04:16:10;;;;;;;5.93;4.80;;;9.40;58.50;;;;;;5077804;28;20445;-71
2021/03/30 04:18:39;;;;;;;11.83;5.37;;;9.40;58.50;;;;;;5076507;28;20492;-71
2021/03/30 04:21:08;;;;;;;7.23;5.10;;;9.30;58.50;;;;;;5076370;28;20447;-71
2021/03/30 04:23:41;;;;;;;7.27;5.20;;;9.30;58.70;;;;;;5076215;28;20486;-71
2021/03/30 04:26:07;;;;;;;6.90;4.73;;;9.30;58.90;;;;;;5076021;28;20911;-71
2021/03/30 04:28:34;;;;;;;6.90;4.40;;;9.30;59.20;;;;;;5076282;28;20444;-71
2021/03/30 04:31:00;;;;;;;7.00;4.73;;;9.30;59.50;;;;;;5075912;28;20932;-71
2021/03/30 04:33:26;;;;;;;7.53;5.00;;;9.30;59.60;;;;;;5076078;28;20482;-71
2021/03/30 04:35:52;;;;;;;13.00;5.93;;;9.30;59.60;;;;;;5075811;28;20992;-71
2021/03/30 04:38:19;;;;;;;7.13;5.30;;;9.20;59.70;;;;;;5075752;28;20441;-71
2021/03/30 04:40:52;;;;;;;11.13;6.00;;;9.20;60.00;;;;;;5076070;28;20448;-71
2021/03/30 04:43:19;;;;;;;7.60;5.27;;;9.20;60.20;;;;;;5075938;28;20539;-71
2021/03/30 04:45:45;;;;;;;7.27;5.17;;;9.20;60.50;;;;;;5076006;28;20444;-71
2021/03/30 04:48:12;;;;;;;6.63;5.43;;;9.20;61.00;;;;;;5075255;28;20453;-71
2021/03/30 04:50:38;;;;;;;9.80;5.50;;;9.20;60.90;;;;;;5075905;28;20425;-71
2021/03/30 04:53:04;;;;;;;8.03;6.00;;;9.20;61.00;;;;;;5075728;28;20425;-71
2021/03/30 04:55:31;;;;;;;7.30;5.93;;;9.20;61.20;;;;;;5075759;28;20455;-71
2021/03/30 04:57:57;;;;;;;9.23;6.00;;;9.20;61.30;;;;;;5075738;28;20449;-71
2021/03/30 05:00:24;;;;;;;9.00;5.77;;;9.10;61.00;;;;;;5075704;28;20479;-71
2021/03/30 05:02:50;;;;;;;8.10;5.97;;;9.10;61.00;;;;;;5075549;28;20486;-71
2021/03/30 05:05:18;;;;;;;6.23;5.30;;;9.10;60.80;;;;;;5075498;28;20502;-72
2021/03/30 05:07:44;;;;;;;10.67;6.63;;;9.00;61.50;;;;;;5075188;28;20949;-71
2021/03/30 05:10:11;;;;;;;11.00;6.13;;;9.00;60.70;;;;;;5075446;28;20455;-72
2021/03/30 05:12:38;;;;;;;9.00;6.17;;;9.00;61.00;;;;;;5075376;28;20528;-71
2021/03/30 05:15:07;;;;;;;6.90;6.10;;;9.00;61.30;;;;;;5075216;28;20477;-71
2021/03/30 05:17:33;;;;;;;8.10;7.23;;;9.00;61.60;;;;;;5075314;28;20482;-71
2021/03/30 05:19:59;;;;;;;8.80;6.60;;;8.90;61.60;;;;;;5075223;28;20448;-71
2021/03/30 05:22:25;;;;;;;8.00;6.17;;;8.90;61.90;;;;;;5075179;28;20473;-72
2021/03/30 05:24:52;;;;;;;11.37;6.30;;;9.00;62.30;;;;;;5075172;28;20466;-71
2021/03/30 05:27:18;;;;;;;11.37;6.80;;;9.00;62.50;;;;;;5075053;28;20425;-71
2021/03/30 05:29:45;;;;;;;12.47;6.53;;;9.00;62.60;;;;;;5075096;28;20441;-71
2021/03/30 05:32:12;;;;;;;7.77;5.50;;;8.90;62.50;;;;;;5075051;28;20494;-71
2021/03/30 05:34:38;;;;;;;9.57;6.10;;;8.90;62.50;;;;;;5074900;28;20464;-71
2021/03/30 05:37:05;;;;;;;8.93;5.50;;;8.90;62.60;;;;;;5074960;28;20531;-71
2021/03/30 05:39:32;;;;;;;9.17;6.57;;;9.00;62.90;;;;;;5074898;28;20472;-71
2021/03/30 05:41:58;;;;;;;9.80;5.80;;;9.00;62.90;;;;;;5074746;28;20440;-71
2021/03/30 05:44:25;;;;;;;14.10;6.00;;;9.00;63.00;;;;;;5074817;28;20467;-71
2021/03/30 05:47:01;;;;;;;9.20;6.73;;;8.90;62.80;;;;;;5074450;28;20455;-71
2021/03/30 05:49:27;;;;;;;8.73;6.37;;;9.00;62.90;;;;;;5074458;28;20433;-71
2021/03/30 05:51:56;;;;;;;9.90;5.60;;;9.00;62.90;;;;;;5074712;28;20452;-71
2021/03/30 05:54:23;;;;;;;7.83;6.60;;;9.00;63.10;;;;;;5074588;28;20464;-71
2021/03/30 05:56:50;;;;;;;5.93;4.97;;;9.00;63.10;;;;;;5074567;28;20428;-71
2021/03/30 05:59:19;;;;;;;11.63;6.40;;;9.00;63.30;;;;;;5073533;28;20449;-71
2021/03/30 06:01:46;;;;;;;8.23;5.67;;;9.00;63.30;;;;;;5074397;28;20436;-72
2021/03/30 06:04:14;;;;;;;6.83;5.70;;;9.10;63.30;;;;;;5074067;28;20999;-72
2021/03/30 06:06:41;;;;;;;10.60;6.37;;;9.10;63.40;;;;;;5074327;28;20536;-72
2021/03/30 06:09:07;;;;;;;10.83;5.70;;;9.10;63.50;;;;;;5074297;28;20524;-72
2021/03/30 06:11:33;;;;;;;9.87;5.87;;;9.10;63.40;;;;;;5073947;28;20942;-71
2021/03/30 06:13:59;;;;;;;7.27;6.40;;;9.20;63.50;;;;;;5074139;28;20466;-71
2021/03/30 06:16:30;;;;;;;8.47;5.47;;;9.20;63.50;;;;;;5074215;28;20460;-71
2021/03/30 06:19:08;;;;;;;10.90;6.37;;;9.30;63.60;;;;;;5074206;28;20452;-72
2021/03/30 06:21:38;;;;;;;12.60;6.07;;;9.30;63.90;;;;;;5073974;28;20469;-72
2021/03/30 06:24:27;;;;;;;11.03;6.03;;;9.40;64.10;;;;;;5073610;28;20990;-72
2021/03/30 06:26:57;;;;;;;7.53;6.00;;;9.40;64.00;;;;;;5073982;28;20527;-72
2021/03/30 06:29:27;;;;;;;9.63;6.00;;;9.50;64.40;;;;;;5073929;28;20487;-72
2021/03/30 06:31:55;;;;;;;8.00;6.13;;;9.50;64.60;;;;;;5073906;28;20428;-72
2021/03/30 06:34:28;;;;;;;11.10;7.00;;;9.60;64.90;;;;;;5073754;28;20479;-72
2021/03/30 06:36:56;;;;;;;10.20;6.50;;;9.60;64.90;;;;;;5073873;28;20429;-72
2021/03/30 06:39:34;;;;;;;10.93;6.33;;;9.70;64.80;;;;;;5073474;28;20856;-72
2021/03/30 06:42:03;;;;;;;13.33;7.23;;;9.80;64.60;;;;;;5073734;28;20435;-72
2021/03/30 06:44:33;;;;;;;7.70;6.27;;;9.80;64.50;;;;;;5073691;28;20522;-72
2021/03/30 06:47:04;;;;;;;8.03;5.40;;;9.90;64.10;;;;;;5073752;28;20428;-72
2021/03/30 06:49:32;;;;;;;9.17;6.10;;;10.00;62.70;;;;;;5073701;28;20437;-72
2021/03/30 06:52:00;;;;;;;9.83;6.33;;;10.10;63.00;;;;;;5073445;28;20907;-72
2021/03/30 06:54:26;;;;;;;9.70;6.37;;;10.10;63.10;;;;;;5073550;28;20469;-72
2021/03/30 06:56:54;;;;;;;12.10;6.07;;;10.20;63.10;;;;;;5073335;28;20911;-72
2021/03/30 06:59:22;;;;;;;8.80;6.80;;;10.30;62.60;;;;;;5073567;28;20534;-72
2021/03/30 07:01:50;;;;;;;14.83;6.90;;;10.40;62.60;;;;;;5073559;28;20445;-72
2021/03/30 07:04:17;;;;;;;7.37;5.83;;;10.50;62.60;;;;;;5073445;28;20601;-72
2021/03/30 07:06:49;;;;;;;11.83;7.80;;;10.60;62.20;;;;;;5073309;28;20448;-72
2021/03/30 07:09:16;;;;;;;13.67;7.80;;;10.80;61.00;;;;;;5073186;28;20452;-72
2021/03/30 07:11:43;;;;;;;12.03;6.40;;;10.80;61.00;;;;;;5073053;28;20452;-72
2021/03/30 07:14:09;;;;;;;15.77;6.80;;;11.00;60.60;;;;;;5073350;28;20460;-72
2021/03/30 07:16:44;;;;;;;10.20;7.10;;;11.10;59.90;;;;;;5073553;28;20487;-72
2021/03/30 07:19:12;;;;;;;8.37;6.93;;;11.30;59.60;;;;;;5073434;28;20432;-72
2021/03/30 07:21:49;;;;;;;8.60;7.20;;;11.40;59.10;;;;;;5072950;28;20441;-72
2021/03/30 07:24:22;;;;;;;10.40;6.57;;;11.50;58.60;;;;;;5073186;28;20488;-72
2021/03/30 07:26:53;;;;;;;8.93;6.90;;;11.70;58.50;;;;;;5073202;28;20498;-72
2021/03/30 07:29:26;;;;;;;11.73;7.60;;;11.80;58.30;;;;;;5073338;28;20428;-72
2021/03/30 07:32:08;;;;;;;16.23;8.30;;;11.90;57.70;;;;;;5073011;28;20437;-72
2021/03/30 07:34:45;;;;;;;15.70;9.20;;;12.00;58.50;;;;;;5073175;28;20464;-72
2021/03/30 07:37:17;;;;;;;18.27;8.20;;;12.10;58.60;;;;;;5073406;28;20424;-72
2021/03/30 07:39:48;;;;;;;9.73;7.73;;;12.30;58.30;;;;;;5073217;28;20479;-72
2021/03/30 07:42:15;;;;;;;20.50;9.20;;;12.40;57.60;;;;;;5073096;28;20432;-71
2021/03/30 07:44:46;;;;;;;16.67;9.17;;;12.60;57.90;;;;;;5073157;28;20871;-71
2021/03/30 07:47:12;;;;;;;11.90;7.40;;;12.70;57.50;;;;;;5073151;28;20432;-72
2021/03/30 07:49:43;;;;;;;11.40;7.40;;;12.90;57.00;;;;;;5073137;28;20452;-72
2021/03/30 07:52:18;;;;;;;10.00;7.43;;;13.10;56.70;;;;;;5072992;28;20464;-72
2021/03/30 07:55:20;;;;;;;14.23;8.10;;;13.30;56.10;;;;;;5072779;28;20539;-72
2021/03/30 07:58:05;;;;;;;15.83;7.67;;;13.50;55.50;;;;;;5072983;28;20447;-72
2021/03/30 08:00:52;;;;;;;11.50;7.30;;;13.80;55.40;;;;;;5072968;28;20468;-72
2021/03/30 08:03:26;;;;;;;9.20;6.93;;;14.00;54.80;;;;;;5072832;28;20875;-72
2021/03/30 08:06:06;;;;;;;10.70;6.90;;;14.20;55.00;;;;;;5072568;28;20839;-72
2021/03/30 08:08:46;;;;;;;9.10;6.87;;;14.40;54.20;;;;;;5072526;28;20904;-72
2021/03/30 08:11:13;;;;;;;10.97;7.30;;;14.70;53.80;;;;;;5072888;28;20432;-70
2021/03/30 08:13:49;;;;;;;18.73;9.07;;;14.80;53.50;;;;;;5072796;28;20472;-73
2021/03/30 08:16:16;;;;;;;9.40;6.90;;;15.10;53.00;;;;;;5072864;28;20517;-72
2021/03/30 08:18:44;;;;;;;13.50;7.50;;;15.30;52.50;;;;;;5072484;28;20498;-71
2021/03/30 08:21:12;;;;;;;13.50;7.80;;;15.50;52.00;;;;;;5072771;28;20447;-71
2021/03/30 08:24:09;;;;;;;10.40;8.07;;;15.80;51.60;;;;;;5075149;28;20487;-72
2021/03/30 08:26:39;;;;;;;8.63;6.20;;;16.00;50.90;;;;;;5076063;28;20441;-72
2021/03/30 08:29:08;;;;;;;14.43;6.80;;;16.20;50.30;;;;;;5076273;28;20444;-72
2021/03/30 08:31:36;;;;;;;10.83;6.80;;;16.40;50.10;;;;;;5076091;28;20548;-72
2021/03/30 08:34:06;;;;;;;10.10;6.60;;;16.60;49.70;;;;;;5076050;28;20904;-72
2021/03/30 08:36:36;;;;;;;10.10;6.83;;;16.80;49.40;;;;;;5075923;28;20920;-72
2021/03/30 08:39:08;;;;;;;11.30;7.47;;;17.00;49.10;;;;;;5075883;28;20921;-72
2021/03/30 08:41:54;;;;;;;13.23;6.70;;;17.30;49.00;;;;;;5076115;28;20421;-72
2021/03/30 08:44:36;;;;;;;11.83;6.70;;;17.50;48.60;;;;;;5075126;28;20495;-73
2021/03/30 08:47:03;;;;;;;10.37;7.83;;;17.70;47.80;;;;;;5076930;28;20425;-72
2021/03/30 08:49:35;;;;;;;11.43;6.00;;;17.90;47.40;;;;;;5076630;28;20440;-72
2021/03/30 08:52:03;;;;;;;9.00;7.00;;;18.10;47.10;;;;;;5075941;28;20434;-71
2021/03/30 08:54:31;;;;;;;12.00;6.80;;;18.30;46.30;;;;;;5075682;28;20477;-71
2021/03/30 08:57:00;;;;;;;11.10;6.50;;;18.40;45.20;;;;;;5075794;28;20527;-71
2021/03/30 08:59:28;;;;;;;8.33;6.50;;;18.60;45.10;;;;;;5075519;28;20958;-71
2021/03/30 09:01:59;;;;;;;11.23;6.97;;;18.80;45.30;;;;;;5075703;28;20812;-71
2021/03/30 09:04:34;;;;;;;9.97;7.00;;;19.00;45.30;;;;;;5075511;28;20594;-71
2021/03/30 09:07:00;;;;;;;10.20;7.00;;;19.20;44.70;;;;;;5075585;28;20456;-72
2021/03/30 09:09:33;;;;;;;11.30;7.43;;;19.50;44.50;;;;;;5075628;28;20464;-71
2021/03/30 09:12:04;;;;;;;9.77;7.50;;;19.70;44.00;;;;;;5075452;28;20432;-71
2021/03/30 09:14:31;;;;;;;13.37;7.47;;;19.90;43.60;;;;;;5075185;28;20460;-72
2021/03/30 09:17:05;;;;;;;14.23;7.53;;;20.20;43.30;;;;;;5075446;28;20433;-71
2021/03/30 09:19:40;;;;;;;12.70;8.93;;;20.40;42.90;;;;;;5075114;28;20440;-71
2021/03/30 09:22:11;;;;;;;11.90;7.50;;;20.70;42.00;;;;;;5075761;28;20438;-72
2021/03/30 09:24:48;;;;;;;12.97;8.20;;;20.80;41.80;;;;;;5074959;28;20831;-71
2021/03/30 09:27:20;;;;;;;14.67;8.60;;;21.10;41.80;;;;;;5075247;28;20486;-71
2021/03/30 09:29:47;;;;;;;10.83;8.40;;;21.30;41.80;;;;;;5075919;28;20432;-70
2021/03/30 09:32:13;;;;;;;12.73;9.03;;;21.60;41.70;;;;;;5074916;28;20826;-70
2021/03/30 09:34:40;;;;;;;12.77;9.20;;;21.80;41.90;;;;;;5074955;28;20472;-70
2021/03/30 09:37:06;;;;;;;11.43;8.93;;;22.00;41.10;;;;;;5075194;28;20441;-71
2021/03/30 09:39:36;;;;;;;10.80;8.40;;;22.30;40.60;;;;;;5075093;28;20448;-72
2021/03/30 09:42:03;;;;;;;10.60;9.10;;;22.50;40.30;;;;;;5074829;28;20494;-71
2021/03/30 09:44:41;;;;;;;23.03;9.60;;;22.80;40.20;;;;;;5075034;28;20545;-71
2021/03/30 09:47:08;;;;;;;14.03;8.87;;;23.10;39.60;;;;;;5074910;28;20538;-73
2021/03/30 09:49:35;;;;;;;16.73;10.43;;;23.30;39.20;;;;;;5074769;28;20837;-70
2021/03/30 09:52:03;;;;;;;13.80;9.90;;;23.60;38.80;;;;;;5074508;28;20440;-72
2021/03/30 09:54:31;;;;;;;12.53;9.87;;;23.90;38.30;;;;;;5074683;28;20464;-72
2021/03/30 09:56:59;;;;;;;14.50;9.50;;;24.10;37.50;;;;;;5074681;28;20448;-72
2021/03/30 09:59:26;;;;;;;17.07;10.53;;;24.40;37.20;;;;;;5074887;28;20433;-71
2021/03/30 10:01:53;;;;;;;14.50;9.73;;;24.70;37.00;;;;;;5075029;28;20428;-72
2021/03/30 10:04:24;;;;;;;15.23;9.80;;;25.10;37.30;;;;;;5074610;28;20545;-72
2021/03/30 10:06:51;;;;;;;15.97;10.60;;;25.40;36.50;;;;;;5074359;28;20460;-72
2021/03/30 10:09:17;;;;;;;18.70;9.70;;;25.60;33.80;;;;;;5074549;28;20437;-72
2021/03/30 10:11:46;;;;;;;13.30;8.47;;;25.90;33.20;;;;;;5074106;28;20441;-71
2021/03/30 10:14:27;;;;;;;12.77;8.97;;;26.20;33.80;;;;;;5075803;28;20514;-71
2021/03/30 10:16:58;;;;;;;13.03;8.20;;;26.50;33.90;;;;;;5077255;28;20447;-71
2021/03/30 10:19:25;;;;;;;21.07;10.63;;;26.90;33.40;;;;;;5074230;28;20531;-71
2021/03/30 10:21:54;;;;;;;15.60;10.10;;;27.30;32.10;;;;;;5074097;28;20440;-71
2021/03/30 10:24:21;;;;;;;11.23;8.77;;;27.70;31.10;;;;;;5073983;28;20492;-71
2021/03/30 10:27:09;;;;;;;14.00;11.03;;;28.10;31.00;;;;;;5074084;28;20464;-72
2021/03/30 10:29:40;;;;;;;17.53;10.83;;;28.70;29.60;;;;;;5074029;28;20483;-71
2021/03/30 10:32:12;;;;;;;13.63;11.30;;;29.10;29.50;;;;;;5074055;28;20554;-72
2021/03/30 10:34:40;;;;;;;14.73;10.93;;;29.50;28.80;;;;;;5073904;28;20539;-70
2021/03/30 10:37:09;;;;;;;14.77;12.53;;;30.00;27.70;;;;;;5073555;28;20938;-71
2021/03/30 10:39:37;;;;;;;15.60;13.13;;;30.50;26.90;;;;;;5073544;28;20484;-71
2021/03/30 10:42:06;;;;;;;16.20;13.60;;;30.90;26.00;;;;;;5072527;28;20456;-71
2021/03/30 10:44:38;;;;;;;16.47;13.67;;;31.40;25.90;;;;;;5073099;28;21008;-71
2021/03/30 10:47:17;;;;;;;16.53;13.13;;;31.90;24.90;;;;;;5073809;28;20424;-71
2021/03/30 10:49:44;;;;;;;17.20;12.57;;;32.40;24.70;;;;;;5073670;28;20436;-71
2021/03/30 10:52:16;;;;;;;17.60;14.17;;;32.90;24.50;;;;;;5073730;28;20519;-71
2021/03/30 10:54:43;;;;;;;19.30;14.80;;;33.40;23.50;;;;;;5073632;28;20486;-71
2021/03/30 10:57:13;;;;;;;15.90;14.23;;;33.80;22.10;;;;;;5073766;28;20432;-71
2021/03/30 10:59:40;;;;;;;21.00;13.83;;;34.20;21.90;;;;;;5073343;28;20927;-71
2021/03/30 11:02:06;;;;;;;20.63;16.60;;;34.70;21.40;;;;;;5073634;28;20795;-71
2021/03/30 11:04:33;;;;;;;21.50;16.17;;;35.20;20.90;;;;;;5073409;28;20484;-72
2021/03/30 11:06:59;;;;;;;17.30;15.50;;;35.60;20.30;;;;;;5073440;28;20474;-72
2021/03/30 11:09:26;;;;;;;17.50;14.90;;;36.10;19.80;;;;;;5073186;28;20977;-73
2021/03/30 11:11:53;;;;;;;18.60;16.27;;;36.50;19.70;;;;;;5073531;28;20475;-74
2021/03/30 11:14:20;;;;;;;17.07;15.37;;;36.90;19.00;;;;;;5073141;28;20459;-73
2021/03/30 11:16:47;;;;;;;18.93;16.50;;;37.20;18.90;;;;;;5073144;28;20436;-74
2021/03/30 11:19:13;;;;;;;18.20;15.30;;;37.50;18.30;;;;;;5073484;28;20201;-71
2021/03/30 11:21:41;;;;;;;16.75;15.10;;;37.80;17.90;;;;;;5073655;28;20190;-72
2021/03/30 11:24:11;;;;;;;17.60;15.35;;;38.10;17.60;;;;;;5073340;28;20221;-72
2021/03/30 11:26:38;;;;;;;15.55;13.95;;;38.40;17.30;;;;;;5073417;28;20217;-72
2021/03/30 11:29:05;;;;;;;14.90;13.38;;;38.60;17.00;;;;;;5073371;28;20197;-72
2021/03/30 11:31:48;;;;;;;13.40;11.98;;;38.80;17.20;;;;;;5073288;28;20268;-72
2021/03/30 11:34:18;;;;;;;14.38;12.98;;;38.90;16.60;;;;;;5072928;28;20699;-73
2021/03/30 11:36:47;;;;;;;16.05;13.05;;;39.20;16.50;;;;;;5073266;28;20233;-74
2021/03/30 11:39:13;;;;;;;14.23;12.73;;;39.40;16.30;;;;;;5073005;28;20280;-74
2021/03/30 11:41:39;;;;;;;15.43;12.75;;;39.60;15.70;;;;;;5073354;28;20201;-74
2021/03/30 11:44:06;;;;;;;15.95;13.82;;;39.80;16.00;;;;;;5073539;28;20726;-74
2021/03/30 11:46:32;;;;;;;16.02;12.85;;;40.00;15.50;;;;;;5073711;28;20202;-74
2021/03/30 11:48:59;;;;;;;15.00;13.50;;;40.20;14.10;;;;;;5073354;28;20201;-74
2021/03/30 11:51:25;;;;;;;15.73;13.60;;;40.50;14.70;;;;;;5072806;28;20202;-74
2021/03/30 11:53:52;;;;;;;19.08;12.90;;;40.80;14.80;;;;;;5073055;28;20225;-74
2021/03/30 11:56:18;;;;;;;14.13;12.52;;;41.10;14.40;;;;;;5073135;28;20193;-74
2021/03/30 11:58:45;;;;;;;13.55;12.15;;;41.40;14.30;;;;;;5076463;28;20212;-74
2021/03/30 12:01:11;;;;;;;15.73;14.23;;;41.80;14.40;;;;;;5076981;28;20192;-74
2021/03/30 12:03:38;;;;;;;14.07;12.15;;;42.20;14.00;;;;;;5076318;28;20240;-74
2021/03/30 12:06:06;;;;;;;16.00;14.38;;;42.50;13.60;;;;;;5076923;28;20205;-74
2021/03/30 12:08:33;;;;;;;16.63;14.63;;;42.90;12.70;;;;;;5076436;28;20206;-74
2021/03/30 12:11:01;;;;;;;14.88;12.93;;;42.90;12.30;;;;;;5076685;28;20198;-74
2021/03/30 12:13:27;;;;;;;14.50;12.70;;;43.00;12.40;;;;;;5076629;28;20222;-74
2021/03/30 12:15:54;;;;;;;12.93;11.68;;;43.40;13.50;;;;;;5076628;28;20202;-74
2021/03/30 12:18:20;;;;;;;11.98;10.88;;;43.70;12.70;;;;;;5076575;28;20217;-74
2021/03/30 12:20:46;;;;;;;13.52;10.73;;;43.90;12.50;;;;;;5076500;28;20198;-74
2021/03/30 12:23:13;;;;;;;15.00;12.82;;;44.30;12.00;;;;;;5076373;28;20233;-74
2021/03/30 12:25:39;;;;;;;13.25;11.95;;;44.60;11.70;;;;;;5076393;28;20191;-74
2021/03/30 12:28:06;;;;;;;11.70;10.48;;;44.80;11.70;;;;;;5076068;28;20213;-74
2021/03/30 12:30:33;;;;;;;11.65;10.02;;;45.20;11.80;;;;;;5076349;28;20198;-74
2021/03/30 12:33:00;;;;;;;14.60;12.57;;;45.50;11.50;;;;;;5076360;28;20205;-74
2021/03/30 12:35:26;;;;;;;13.25;11.30;;;45.70;10.20;;;;;;5076590;28;20225;-74
2021/03/30 12:37:52;;;;;;;11.98;10.88;;;45.80;10.10;;;;;;5075992;28;20205;-73
2021/03/30 12:40:19;;;;;;;12.05;10.07;;;45.90;10.50;;;;;;5075933;28;20205;-74
2021/03/30 12:42:45;;;;;;;9.65;8.75;;;46.00;10.40;;;;;;5075792;28;20198;-74
2021/03/30 12:45:13;;;;;;;10.10;9.00;;;46.20;10.80;;;;;;5075830;28;20228;-74
2021/03/30 12:47:39;;;;;;;10.65;9.65;;;46.50;10.40;;;;;;5075847;28;20201;-75
2021/03/30 12:50:07;;;;;;;9.55;8.63;;;46.80;10.30;;;;;;5075852;28;20205;-75
2021/03/30 12:52:33;;;;;;;10.80;9.10;;;47.00;9.90;;;;;;5075517;28;20667;-74